Time;durP1;ratioP1;P1;durP2;ratioP2;P2;SDS_P1;SDS_P2;PMS_P1;PMS_P2;Temp;Humidity;BMP_temperature;BMP_pressure;BME280_temperature;BME280_humidity;BME280_pressure;Samples;Min_cycle;Max_cycle;Signal;HPM_P1;HPM_P2
2023/10/27 00:01:49;;;;;;;27.63;13.75;;;;;;;;;;5133335;27;20051;-78
2023/10/27 00:04:15;;;;;;;;;;;;;;;;;;5133400;27;20042;-78
2023/10/27 00:06:41;;;;;;;25.80;10.80;;;;;;;;;;5115651;27;20014;-78
2023/10/27 00:09:07;;;;;;;27.48;14.35;;;;;;;;;;5086037;27;20046;-83
2023/10/27 00:11:35;;;;;;;;;;;;;;;;;;5115849;27;20043;-78
2023/10/27 00:14:02;;;;;;;27.52;13.52;;;;;;;;;;5099452;27;19919;-78
2023/10/27 00:16:28;;;;;;;28.80;14.90;;;;;;;;;;5115887;27;20055;-78
2023/10/27 00:18:54;;;;;;;;;;;;;;;;;;5116599;27;20055;-78
2023/10/27 00:21:20;;;;;;;31.75;13.93;;;;;;;;;;5115030;27;20115;-80
2023/10/27 00:23:46;;;;;;;27.00;12.90;;;;;;;;;;5116080;27;20395;-78
2023/10/27 00:26:13;;;;;;;30.42;14.57;;;;;;;;;;5119993;27;20392;-78
2023/10/27 00:28:39;;;;;;;31.58;14.68;;;;;;;;;;5116066;27;20420;-78
2023/10/27 00:31:05;;;;;;;30.15;14.68;;;;;;;;;;5115972;27;20077;-78
2023/10/27 00:33:31;;;;;;;31.80;14.23;;;;;;;;;;5110506;27;20048;-78
2023/10/27 00:35:58;;;;;;;30.75;14.38;;;;;;;;;;5098934;27;20039;-79
2023/10/27 00:38:24;;;;;;;27.15;14.20;;;;;;;;;;5114706;27;20054;-78
2023/10/27 00:40:50;;;;;;;31.70;15.75;;;;;;;;;;5091995;27;20129;-78
2023/10/27 00:43:16;;;;;;;;;;;;;;;;;;5098155;28;20090;-78
2023/10/27 00:45:43;;;;;;;30.30;14.98;;;;;;;;;;5112405;28;19919;-78
2023/10/27 00:48:09;;;;;;;37.72;15.20;;;;;;;;;;5078087;28;20134;-82
2023/10/27 00:50:35;;;;;;;;;;;;;;;;;;5129401;27;20138;-78
2023/10/27 00:53:01;;;;;;;31.15;14.77;;;;;;;;;;5094510;28;20399;-78
2023/10/27 00:55:27;;;;;;;29.42;14.75;;;;;;;;;;5127802;27;20048;-78
2023/10/27 00:57:54;;;;;;;32.78;15.05;;;;;;;;;;5112335;28;20082;-78
2023/10/27 01:00:21;;;;;;;32.42;15.02;;;;;;;;;;5129902;27;20048;-78
2023/10/27 01:02:46;;;;;;;;;;;;;;;;;;5103988;27;20116;-78
2023/10/27 01:05:15;;;;;;;30.88;13.38;;;;;;;;;;5114665;27;20352;-83
2023/10/27 01:07:41;;;;;;;29.25;13.63;;;;;;;;;;5132103;27;20128;-79
2023/10/27 01:10:07;;;;;;;;;;;;;;;;;;5127069;27;20466;-78
2023/10/27 01:12:33;;;;;;;31.60;14.45;;;;;;;;;;5110961;28;20006;-79
2023/10/27 01:14:59;;;;;;;31.75;15.43;;;;;;;;;;5112017;28;20107;-78
2023/10/27 01:17:26;;;;;;;32.10;14.52;;;;;;;;;;5111385;28;20083;-78
2023/10/27 01:19:52;;;;;;;;;;;;;;;;;;5129062;27;20610;-78
2023/10/27 01:22:18;;;;;;;29.63;14.15;;;;;;;;;;5126297;27;20006;-78
2023/10/27 01:24:44;;;;;;;;;;;;;;;;;;5101042;28;20090;-80
2023/10/27 01:27:10;;;;;;;33.33;14.23;;;;;;;;;;5111089;28;19970;-78
2023/10/27 01:29:36;;;;;;;;;;;;;;;;;;5128778;27;20047;-79
2023/10/27 01:32:02;;;;;;;32.00;14.50;;;;;;;;;;5111273;28;20501;-79
2023/10/27 01:34:28;;;;;;;;;;;;;;;;;;5112258;27;20043;-78
2023/10/27 01:36:54;;;;;;;31.88;14.88;;;;;;;;;;5110401;28;19920;-78
2023/10/27 01:39:20;;;;;;;38.83;15.55;;;;;;;;;;5094006;28;20055;-78
2023/10/27 01:41:46;;;;;;;;;;;;;;;;;;5093232;28;20059;-78
2023/10/27 01:44:12;;;;;;;36.10;14.73;;;;;;;;;;5111665;28;20267;-78
2023/10/27 01:46:38;;;;;;;33.10;14.93;;;;;;;;;;5093953;28;20054;-78
2023/10/27 01:49:04;;;;;;;;;;;;;;;;;;5131883;27;20043;-78
2023/10/27 01:51:30;;;;;;;34.60;15.15;;;;;;;;;;5105925;28;19938;-79
2023/10/27 01:53:56;;;;;;;32.25;13.02;;;;;;;;;;5094816;28;20047;-78
2023/10/27 01:56:22;;;;;;;36.28;14.88;;;;;;;;;;5096726;28;20044;-78
2023/10/27 01:58:48;;;;;;;32.97;15.02;;;;;;;;;;5125431;28;20050;-78
2023/10/27 02:01:14;;;;;;;34.95;14.35;;;;;;;;;;5093935;28;20044;-78
2023/10/27 02:03:41;;;;;;;35.00;14.20;;;;;;;;;;5110349;28;20123;-78
2023/10/27 02:06:07;;;;;;;30.00;12.38;;;;;;;;;;5110987;28;20039;-79
2023/10/27 02:08:36;;;;;;;38.10;16.42;;;;;;;;;;5076458;28;20085;-79
2023/10/27 02:11:02;;;;;;;38.05;12.80;;;;;;;;;;5110195;28;20047;-78
2023/10/27 02:13:29;;;;;;;41.38;13.88;;;;;;;;;;5113014;28;20071;-78
2023/10/27 02:15:55;;;;;;;35.50;16.10;;;;;;;;;;5123086;27;20047;-78
2023/10/27 02:18:21;;;;;;;33.53;15.45;;;;;;;;;;5125652;27;20051;-82
2023/10/27 02:20:47;;;;;;;34.97;12.15;;;;;;;;;;5131881;27;20035;-78
2023/10/27 02:23:15;;;;;;;31.65;15.13;;;;;;;;;;5114505;28;20181;-78
2023/10/27 02:25:41;;;;;;;29.92;13.38;;;;;;;;;;5111133;27;20051;-79
2023/10/27 02:28:07;;;;;;;35.72;13.80;;;;;;;;;;5118313;27;20047;-78
2023/10/27 02:30:33;;;;;;;;;;;;;;;;;;5118373;27;20051;-76
2023/10/27 02:32:59;;;;;;;28.58;10.30;;;;;;;;;;5118290;27;19925;-76
2023/10/27 02:35:25;;;;;;;29.75;12.45;;;;;;;;;;5134904;27;20043;-77
2023/10/27 02:37:52;;;;;;;40.38;14.93;;;;;;;;;;5117732;27;20055;-76
2023/10/27 02:40:18;;;;;;;30.35;13.68;;;;;;;;;;5127327;27;20052;-77
2023/10/27 02:42:44;;;;;;;31.20;12.23;;;;;;;;;;5114310;28;20548;-76
2023/10/27 02:45:10;;;;;;;;;;;;;;;;;;5098426;28;20047;-76
2023/10/27 02:47:36;;;;;;;30.20;13.50;;;;;;;;;;5114001;28;19942;-76
2023/10/27 02:50:02;;;;;;;28.35;13.60;;;;;;;;;;5132515;27;20115;-77
2023/10/27 02:52:28;;;;;;;;;;;;;;;;;;5134331;27;20050;-77
2023/10/27 02:54:54;;;;;;;28.05;12.40;;;;;;;;;;5118551;27;20296;-77
2023/10/27 02:57:20;;;;;;;28.67;12.98;;;;;;;;;;5131675;27;20389;-76
2023/10/27 02:59:46;;;;;;;30.20;13.57;;;;;;;;;;5096890;28;20498;-76
2023/10/27 03:02:12;;;;;;;;;;;;;;;;;;5114541;28;20132;-76
2023/10/27 03:04:38;;;;;;;28.00;10.70;;;;;;;;;;5113598;28;19967;-76
2023/10/27 03:07:05;;;;;;;31.63;14.45;;;;;;;;;;5079894;28;20392;-76
2023/10/27 03:09:31;;;;;;;27.23;12.68;;;;;;;;;;5114879;27;20047;-76
2023/10/27 03:11:57;;;;;;;25.08;12.27;;;;;;;;;;5096176;28;20051;-76
2023/10/27 03:14:23;;;;;;;26.05;12.95;;;;;;;;;;5097089;28;20043;-76
2023/10/27 03:16:49;;;;;;;26.27;12.25;;;;;;;;;;5113695;27;20051;-76
2023/10/27 03:19:15;;;;;;;27.85;13.73;;;;;;;;;;5131151;27;20039;-76
2023/10/27 03:21:41;;;;;;;28.13;13.32;;;;;;;;;;5127354;27;20069;-76
2023/10/27 03:24:07;;;;;;;27.13;13.07;;;;;;;;;;5113140;28;20101;-76
2023/10/27 03:26:34;;;;;;;27.38;13.23;;;;;;;;;;5112421;28;20058;-76
2023/10/27 03:29:00;;;;;;;28.08;12.60;;;;;;;;;;5097142;28;20058;-76
2023/10/27 03:31:26;;;;;;;24.90;12.00;;;;;;;;;;5105592;27;20050;-76
2023/10/27 03:33:52;;;;;;;25.13;12.00;;;;;;;;;;5105966;28;20043;-76
2023/10/27 03:36:18;;;;;;;26.75;12.82;;;;;;;;;;5130142;27;20043;-77
2023/10/27 03:38:44;;;;;;;26.52;11.52;;;;;;;;;;5129991;27;20050;-76
2023/10/27 03:41:10;;;;;;;30.45;13.18;;;;;;;;;;5113586;27;20107;-76
2023/10/27 03:43:36;;;;;;;;;;;;;;;;;;5134298;27;20070;-78
2023/10/27 03:46:02;;;;;;;23.70;10.85;;;;;;;;;;5134166;27;20352;-78
2023/10/27 03:48:28;;;;;;;;;;;;;;;;;;5117204;27;20494;-78
2023/10/27 03:50:55;;;;;;;27.52;12.55;;;;;;;;;;5133325;27;19958;-79
2023/10/27 03:53:21;;;;;;;30.73;12.95;;;;;;;;;;5105347;28;20044;-78
2023/10/27 03:55:53;;;;;;;26.75;12.23;;;;;;;;;;5104677;27;20046;-79
2023/10/27 03:58:19;;;;;;;27.20;13.02;;;;;;;;;;5116989;27;20047;-78
2023/10/27 04:00:46;;;;;;;26.60;11.98;;;;;;;;;;5132904;27;20039;-78
2023/10/27 04:03:12;;;;;;;27.95;12.77;;;;;;;;;;5133565;27;20130;-78
2023/10/27 04:05:38;;;;;;;23.35;11.20;;;;;;;;;;5132935;27;20388;-79
2023/10/27 04:08:07;;;;;;;;;;;;;;;;;;5133182;27;20046;-78
2023/10/27 04:10:35;;;;;;;25.58;11.07;;;;;;;;;;5107118;28;20284;-82
2023/10/27 04:13:01;;;;;;;23.90;11.65;;;;;;;;;;5129840;27;20081;-78
2023/10/27 04:15:27;;;;;;;;;;;;;;;;;;5116799;27;20054;-78
2023/10/27 04:17:53;;;;;;;27.88;12.35;;;;;;;;;;5132477;27;19919;-78
2023/10/27 04:20:19;;;;;;;;;;;;;;;;;;5116695;27;20054;-76
2023/10/27 04:22:45;;;;;;;24.02;11.55;;;;;;;;;;5131454;27;19919;-76
2023/10/27 04:25:12;;;;;;;24.80;11.20;;;;;;;;;;5114012;27;20587;-76
2023/10/27 04:27:38;;;;;;;27.33;12.25;;;;;;;;;;5097767;28;20039;-81
2023/10/27 04:30:07;;;;;;;;;;;;;;;;;;5130291;27;20044;-77
2023/10/27 04:32:33;;;;;;;27.15;11.82;;;;;;;;;;5114900;27;19919;-76
2023/10/27 04:34:59;;;;;;;19.83;7.68;;;;;;;;;;5099501;28;20100;-76
2023/10/27 04:37:27;;;;;;;37.53;14.23;;;;;;;;;;5111721;28;20135;-76
2023/10/27 04:39:54;;;;;;;23.42;10.68;;;;;;;;;;5112655;27;20504;-76
2023/10/27 04:42:21;;;;;;;25.35;11.88;;;;;;;;;;5098899;27;20100;-76
2023/10/27 04:44:47;;;;;;;;;;;;;;;;;;5132859;27;20504;-77
2023/10/27 04:47:13;;;;;;;27.27;12.00;;;;;;;;;;5122774;27;19992;-76
2023/10/27 04:49:39;;;;;;;;;;;;;;;;;;5136682;27;20075;-81
2023/10/27 04:52:05;;;;;;;27.65;12.52;;;;;;;;;;5104174;27;19919;-76
2023/10/27 04:54:34;;;;;;;29.80;13.05;;;;;;;;;;5098635;27;20043;-76
2023/10/27 04:57:03;;;;;;;28.92;13.20;;;;;;;;;;5080397;27;20678;-77
2023/10/27 04:59:29;;;;;;;27.02;10.63;;;;;;;;;;5098488;27;20089;-76
2023/10/27 05:01:55;;;;;;;30.88;14.40;;;;;;;;;;5120675;27;20061;-77
2023/10/27 05:04:21;;;;;;;;;;;;;;;;;;5118984;27;20579;-75
2023/10/27 05:06:47;;;;;;;29.23;12.93;;;;;;;;;;5134586;27;20010;-76
2023/10/27 05:09:13;;;;;;;;;;;;;;;;;;5127614;27;20047;-76
2023/10/27 05:11:41;;;;;;;31.33;13.25;;;;;;;;;;5115609;27;19945;-78
2023/10/27 05:14:07;;;;;;;36.08;15.00;;;;;;;;;;5114643;27;20047;-76
2023/10/27 05:16:33;;;;;;;28.33;12.45;;;;;;;;;;5132347;27;20047;-76
2023/10/27 05:18:59;;;;;;;32.67;12.10;;;;;;;;;;5131843;27;20039;-76
2023/10/27 05:21:27;;;;;;;28.05;12.25;;;;;;;;;;5113787;27;20081;-76
2023/10/27 05:23:56;;;;;;;30.77;13.93;;;;;;;;;;5080870;27;20042;-76
2023/10/27 05:26:26;;;;;;;30.25;13.70;;;;;;;;;;5114106;27;20105;-76
2023/10/27 05:28:52;;;;;;;32.92;14.98;;;;;;;;;;5097575;27;20529;-77
2023/10/27 05:31:18;;;;;;;33.28;15.77;;;;;;;;;;5117102;27;20054;-76
2023/10/27 05:33:45;;;;;;;36.65;14.95;;;;;;;;;;5114645;27;20051;-81
2023/10/27 05:36:11;;;;;;;34.15;15.48;;;;;;;;;;5097871;27;20051;-76
2023/10/27 05:38:37;;;;;;;24.55;10.38;;;;;;;;;;5116373;27;20050;-76
2023/10/27 05:41:03;;;;;;;36.22;15.38;;;;;;;;;;5129989;27;20086;-76
2023/10/27 05:43:30;;;;;;;34.28;14.63;;;;;;;;;;5131571;27;20134;-76
2023/10/27 05:45:56;;;;;;;31.73;15.43;;;;;;;;;;5104861;27;20050;-76
2023/10/27 05:48:22;;;;;;;28.58;12.93;;;;;;;;;;5134780;27;20097;-78
2023/10/27 05:50:48;;;;;;;33.35;15.32;;;;;;;;;;5134220;27;20050;-82
2023/10/27 05:53:15;;;;;;;29.75;13.98;;;;;;;;;;5129242;27;20043;-76
2023/10/27 05:55:41;;;;;;;31.52;13.48;;;;;;;;;;5096973;28;20475;-79
2023/10/27 05:58:07;;;;;;;33.95;14.15;;;;;;;;;;5097225;28;20049;-76
2023/10/27 06:00:33;;;;;;;28.58;12.05;;;;;;;;;;5114205;28;20047;-76
2023/10/27 06:02:59;;;;;;;;;;;;;;;;;;5125601;27;20091;-76
2023/10/27 06:05:25;;;;;;;39.63;12.52;;;;;;;;;;5134583;27;19919;-76
2023/10/27 06:07:51;;;;;;;;;;;;;;;;;;5134678;27;20081;-76
2023/10/27 06:10:18;;;;;;;35.92;13.75;;;;;;;;;;5133864;27;19970;-76
2023/10/27 06:12:44;;;;;;;31.05;13.82;;;;;;;;;;5134917;27;20071;-77
2023/10/27 06:15:10;;;;;;;;;;;;;;;;;;5096752;28;20051;-77
2023/10/27 06:17:36;;;;;;;30.42;13.48;;;;;;;;;;5134521;27;19926;-77
2023/10/27 06:20:02;;;;;;;;;;;;;;;;;;5113314;28;20058;-77
2023/10/27 06:22:29;;;;;;;29.20;13.48;;;;;;;;;;5113695;28;19920;-76
2023/10/27 06:24:55;;;;;;;29.92;13.40;;;;;;;;;;5130468;28;20053;-78
2023/10/27 06:27:21;;;;;;;30.02;14.35;;;;;;;;;;5114343;28;20127;-76
2023/10/27 06:29:47;;;;;;;;;;;;;;;;;;5133991;27;20403;-76
2023/10/27 06:32:14;;;;;;;30.88;13.10;;;;;;;;;;5134337;27;19972;-76
2023/10/27 06:34:40;;;;;;;30.95;10.77;;;;;;;;;;5132294;27;20450;-77
2023/10/27 06:37:07;;;;;;;33.45;14.30;;;;;;;;;;5098957;27;20138;-78
2023/10/27 06:39:33;;;;;;;28.58;13.88;;;;;;;;;;5110889;28;20051;-76
2023/10/27 06:41:59;;;;;;;31.90;13.13;;;;;;;;;;5095375;28;20062;-77
2023/10/27 06:44:26;;;;;;;35.47;14.15;;;;;;;;;;5097387;28;20068;-76
2023/10/27 06:46:53;;;;;;;31.50;14.13;;;;;;;;;;5097134;28;20035;-75
2023/10/27 06:49:19;;;;;;;29.65;13.65;;;;;;;;;;5113959;28;20065;-76
2023/10/27 06:51:47;;;;;;;31.98;14.57;;;;;;;;;;5079794;28;20040;-77
2023/10/27 06:54:13;;;;;;;33.33;14.57;;;;;;;;;;5113303;28;20284;-77
2023/10/27 06:56:39;;;;;;;27.75;14.30;;;;;;;;;;5078982;28;20112;-78
2023/10/27 06:59:05;;;;;;;;;;;;;;;;;;5114093;27;20050;-76
2023/10/27 07:01:31;;;;;;;29.25;12.80;;;;;;;;;;5136728;27;19919;-77
2023/10/27 07:03:58;;;;;;;;;;;;;;;;;;5121112;27;20043;-81
2023/10/27 07:06:24;;;;;;;32.33;14.18;;;;;;;;;;5133022;27;20009;-77
2023/10/27 07:08:50;;;;;;;29.67;13.95;;;;;;;;;;5101310;27;20404;-77
2023/10/27 07:11:16;;;;;;;28.58;13.48;;;;;;;;;;5130890;27;20177;-79
2023/10/27 07:13:42;;;;;;;25.75;12.23;;;;;;;;;;5112135;27;20077;-78
2023/10/27 07:16:08;;;;;;;33.47;13.38;;;;;;;;;;5107778;27;20183;-79
2023/10/27 07:18:34;;;;;;;;;;;;;;;;;;5118559;27;20050;-81
2023/10/27 07:21:00;;;;;;;29.08;13.57;;;;;;;;;;5128519;27;19924;-79
2023/10/27 07:23:28;;;;;;;;;;;;;;;;;;5112491;27;20043;-78
2023/10/27 07:25:54;;;;;;;32.88;12.75;;;;;;;;;;5116606;27;19971;-78
2023/10/27 07:28:20;;;;;;;39.22;13.65;;;;;;;;;;5095701;27;20057;-79
2023/10/27 07:30:46;;;;;;;32.85;13.38;;;;;;;;;;5112359;27;20039;-79
2023/10/27 07:33:13;;;;;;;26.70;13.20;;;;;;;;;;5092051;27;20047;-78
2023/10/27 07:35:39;;;;;;;32.60;14.10;;;;;;;;;;5133733;27;20089;-78
2023/10/27 07:38:05;;;;;;;;;;;;;;;;;;5114424;27;20125;-79
2023/10/27 07:40:34;;;;;;;29.05;13.13;;;;;;;;;;5132279;27;19923;-79
2023/10/27 07:43:00;;;;;;;30.63;13.52;;;;;;;;;;5126507;27;20055;-84
2023/10/27 07:45:26;;;;;;;;;;;;;;;;;;5131947;27;20039;-80
2023/10/27 07:47:53;;;;;;;29.20;11.57;;;;;;;;;;5128706;27;19919;-79
2023/10/27 07:50:19;;;;;;;31.08;13.75;;;;;;;;;;5129266;27;20079;-80
2023/10/27 07:52:46;;;;;;;32.65;13.75;;;;;;;;;;5116721;27;20053;-78
2023/10/27 07:55:12;;;;;;;28.80;13.20;;;;;;;;;;5125296;27;20047;-79
2023/10/27 07:57:38;;;;;;;;;;;;;;;;;;5133570;27;20042;-80
2023/10/27 08:00:07;;;;;;;26.10;12.90;;;;;;;;;;5118838;27;19919;-84
2023/10/27 08:02:33;;;;;;;28.27;12.65;;;;;;;;;;5108093;27;20042;-80
2023/10/27 08:05:00;;;;;;;27.48;12.75;;;;;;;;;;5107589;27;20138;-79
2023/10/27 08:07:26;;;;;;;;;;;;;;;;;;5107616;27;20134;-80
2023/10/27 08:09:53;;;;;;;26.67;12.33;;;;;;;;;;5131693;27;19919;-78
2023/10/27 08:12:20;;;;;;;26.65;13.20;;;;;;;;;;5128053;27;20297;-78
2023/10/27 08:14:46;;;;;;;26.80;11.73;;;;;;;;;;5113914;27;20507;-80
2023/10/27 08:17:13;;;;;;;27.50;13.43;;;;;;;;;;5122401;27;20047;-78
2023/10/27 08:19:39;;;;;;;;;;;;;;;;;;5116348;27;20043;-80
2023/10/27 08:22:05;;;;;;;25.60;11.07;;;;;;;;;;5127216;27;20407;-84
2023/10/27 08:24:31;;;;;;;;;;;;;;;;;;5117342;27;20051;-79
2023/10/27 08:26:57;;;;;;;25.95;11.68;;;;;;;;;;5115011;27;19919;-78
2023/10/27 08:29:24;;;;;;;26.35;10.98;;;;;;;;;;5114255;27;20058;-77
2023/10/27 08:31:50;;;;;;;;;;;;;;;;;;5136516;27;20049;-77
2023/10/27 08:34:16;;;;;;;30.65;10.18;;;;;;;;;;5127836;27;19926;-82
2023/10/27 08:36:42;;;;;;;30.45;12.95;;;;;;;;;;5121360;27;20051;-80
2023/10/27 08:39:08;;;;;;;28.00;12.13;;;;;;;;;;5112989;27;20047;-87
2023/10/27 08:41:37;;;;;;;28.05;12.93;;;;;;;;;;5114776;27;20092;-82
2023/10/27 08:44:03;;;;;;;28.90;12.98;;;;;;;;;;5113102;27;20125;-81
2023/10/27 08:46:29;;;;;;;;;;;;;;;;;;5107244;27;20454;-82
2023/10/27 08:48:55;;;;;;;27.73;12.57;;;;;;;;;;5135494;27;19919;-78
2023/10/27 08:51:21;;;;;;;26.65;10.95;;;;;;;;;;5114767;27;20044;-83
2023/10/27 08:53:47;;;;;;;;;;;;;;;;;;5113545;27;20050;-81
2023/10/27 08:56:14;;;;;;;25.98;12.38;;;;;;;;;;5113056;27;19919;-82
2023/10/27 08:58:41;;;;;;;30.02;12.98;;;;;;;;;;5113942;27;20042;-80
2023/10/27 09:01:07;;;;;;;27.33;12.68;;;;;;;;;;5100710;27;20051;-81
2023/10/27 09:03:33;;;;;;;;;;;;;;;;;;5133135;27;20105;-81
2023/10/27 09:05:59;;;;;;;26.13;12.15;;;;;;;;;;5117820;27;20360;-80
2023/10/27 09:08:25;;;;;;;;;;;;;;;;;;5114159;27;20054;-81
2023/10/27 09:10:51;;;;;;;23.92;12.13;;;;;;;;;;5097807;27;19919;-84
2023/10/27 09:13:17;;;;;;;;;;;;;;;;;;5095476;27;20054;-83
2023/10/27 09:15:46;;;;;;;26.90;11.57;;;;;;;;;;5109847;27;19919;-83
2023/10/27 09:18:13;;;;;;;24.10;11.77;;;;;;;;;;5129665;27;20075;-88
2023/10/27 09:20:49;;;;;;;25.83;11.82;;;;;;;;;;5130512;27;20072;-83
2023/10/27 09:23:15;;;;;;;26.30;9.75;;;;;;;;;;5101796;27;20046;-84
2023/10/27 09:25:41;;;;;;;29.42;12.60;;;;;;;;;;5122482;27;20046;-83
2023/10/27 09:28:07;;;;;;;;;;;;;;;;;;5110960;27;20043;-81
2023/10/27 09:30:36;;;;;;;24.83;11.75;;;;;;;;;;5131868;27;20008;-83
2023/10/27 09:33:13;;;;;;;24.50;9.75;;;;;;;;;;5130209;27;20051;-82
2023/10/27 09:35:40;;;;;;;28.85;11.07;;;;;;;;;;5130657;27;20054;-82
2023/10/27 09:38:06;;;;;;;27.27;12.68;;;;;;;;;;5115467;27;20103;-82
2023/10/27 09:40:33;;;;;;;;;;;;;;;;;;5132761;27;20047;-82
2023/10/27 09:43:02;;;;;;;27.13;12.07;;;;;;;;;;5125677;27;19922;-82
2023/10/27 09:45:30;;;;;;;27.20;12.68;;;;;;;;;;5122370;27;20387;-82
2023/10/27 09:48:02;;;;;;;26.63;11.55;;;;;;;;;;5115168;28;20484;-81
2023/10/27 09:50:29;;;;;;;28.55;12.55;;;;;;;;;;5111407;27;20035;-82
2023/10/27 09:53:05;;;;;;;26.77;11.38;;;;;;;;;;5110603;27;20077;-82
2023/10/27 09:55:31;;;;;;;28.17;13.10;;;;;;;;;;5123374;27;20043;-82
2023/10/27 09:57:59;;;;;;;28.38;12.48;;;;;;;;;;5115186;28;20043;-82
2023/10/27 10:00:28;;;;;;;27.10;11.82;;;;;;;;;;5134131;27;20112;-83
2023/10/27 10:02:55;;;;;;;26.45;12.07;;;;;;;;;;5133979;27;20476;-86
2023/10/27 10:05:21;;;;;;;24.60;9.05;;;;;;;;;;5097017;28;20074;-83
2023/10/27 10:07:56;;;;;;;23.38;9.90;;;;;;;;;;5094266;28;20047;-84
2023/10/27 10:10:33;;;;;;;36.33;14.55;;;;;;;;;;5107023;27;20051;-83
2023/10/27 10:13:02;;;;;;;25.33;10.60;;;;;;;;;;5111741;28;20121;-82
2023/10/27 10:15:29;;;;;;;28.35;12.05;;;;;;;;;;5107134;27;20130;-82
2023/10/27 10:17:55;;;;;;;27.85;12.65;;;;;;;;;;5122542;27;20085;-82
2023/10/27 10:20:41;;;;;;;26.65;12.25;;;;;;;;;;5134423;27;20046;-86
2023/10/27 10:23:07;;;;;;;26.85;12.10;;;;;;;;;;5127175;28;20047;-82
2023/10/27 10:25:34;;;;;;;29.35;9.13;;;;;;;;;;5105657;28;20401;-82
2023/10/27 10:28:09;;;;;;;39.88;16.58;;;;;;;;;;5116628;27;20057;-82
2023/10/27 10:30:42;;;;;;;34.05;13.70;;;;;;;;;;5109539;27;20126;-82
2023/10/27 10:33:11;;;;;;;33.08;10.60;;;;;;;;;;5100848;27;20488;-83
2023/10/27 10:35:38;;;;;;;28.38;13.18;;;;;;;;;;5118377;27;20046;-83
2023/10/27 10:38:24;;;;;;;30.77;13.88;;;;;;;;;;5113656;27;20043;-82
2023/10/27 10:40:50;;;;;;;23.38;11.93;;;;;;;;;;5126376;27;20129;-83
2023/10/27 10:43:20;;;;;;;27.83;12.02;;;;;;;;;;5122423;27;20122;-82
2023/10/27 10:45:56;;;;;;;28.85;13.23;;;;;;;;;;5121938;27;20050;-82
2023/10/27 10:48:24;;;;;;;28.63;13.88;;;;;;;;;;5134218;27;20438;-87
2023/10/27 10:50:51;;;;;;;25.05;12.93;;;;;;;;;;5130232;27;20111;-81
2023/10/27 10:53:21;;;;;;;25.83;11.82;;;;;;;;;;5134760;27;20047;-80
2023/10/27 10:55:51;;;;;;;25.73;12.02;;;;;;;;;;5101637;27;20047;-80
2023/10/27 10:58:21;;;;;;;27.45;12.85;;;;;;;;;;5138276;27;20051;-80
2023/10/27 11:00:48;;;;;;;29.55;13.15;;;;;;;;;;5132086;27;20051;-79
2023/10/27 11:03:14;;;;;;;25.33;13.48;;;;;;;;;;5101944;27;20051;-80
2023/10/27 11:05:41;;;;;;;;;;;;;;;;;;5118771;27;20039;-80
2023/10/27 11:08:08;;;;;;;24.60;12.40;;;;;;;;;;5118646;27;19926;-81
2023/10/27 11:10:35;;;;;;;25.50;13.10;;;;;;;;;;5101208;27;20055;-81
2023/10/27 11:13:01;;;;;;;32.03;13.75;;;;;;;;;;5148940;27;20107;-81
2023/10/27 11:15:44;;;;;;;28.73;11.18;;;;;;;;;;5130580;27;20053;-85
2023/10/27 11:18:14;;;;;;;26.77;13.27;;;;;;;;;;5118334;27;20082;-81
2023/10/27 11:20:40;;;;;;;26.77;13.32;;;;;;;;;;5100706;27;20157;-81
2023/10/27 11:23:09;;;;;;;24.63;10.85;;;;;;;;;;5116839;27;20132;-82
2023/10/27 11:25:35;;;;;;;26.25;11.98;;;;;;;;;;5121276;27;20042;-80
2023/10/27 11:28:01;;;;;;;;;;;;;;;;;;5145727;27;20046;-81
2023/10/27 11:30:27;;;;;;;21.20;8.65;;;;;;;;;;5121512;27;19919;-85
2023/10/27 11:32:53;;;;;;;;;;;;;;;;;;5138944;27;20039;-81
2023/10/27 11:35:22;;;;;;;28.08;13.93;;;;;;;;;;5118064;27;19925;-82
2023/10/27 11:37:48;;;;;;;23.83;12.52;;;;;;;;;;5117664;27;20134;-81
2023/10/27 11:40:14;;;;;;;24.67;11.80;;;;;;;;;;5114206;27;20111;-81
2023/10/27 11:42:40;;;;;;;22.02;8.85;;;;;;;;;;5136902;27;20047;-78
2023/10/27 11:45:06;;;;;;;;;;;;;;;;;;5117380;27;20091;-79
2023/10/27 11:47:32;;;;;;;23.08;11.32;;;;;;;;;;5108170;27;19923;-79
2023/10/27 11:49:58;;;;;;;21.13;11.27;;;;;;;;;;5135149;27;20081;-77
2023/10/27 11:52:24;;;;;;;;;;;;;;;;;;5150808;27;20049;-77
2023/10/27 11:54:50;;;;;;;22.05;11.10;;;;;;;;;;5123807;27;20442;-84
2023/10/27 11:57:16;;;;;;;;;;;;;;;;;;5135437;27;20066;-79
2023/10/27 11:59:42;;;;;;;26.02;12.27;;;;;;;;;;5131777;27;20355;-79
2023/10/27 12:02:08;;;;;;;25.35;12.27;;;;;;;;;;5137146;27;20039;-79
2023/10/27 12:04:35;;;;;;;;;;;;;;;;;;5124284;27;20091;-80
2023/10/27 12:07:01;;;;;;;21.77;11.15;;;;;;;;;;5135788;27;19919;-78
2023/10/27 12:09:27;;;;;;;31.05;12.85;;;;;;;;;;5135778;27;20042;-80
2023/10/27 12:11:53;;;;;;;23.05;11.45;;;;;;;;;;5132614;27;20050;-77
2023/10/27 12:14:20;;;;;;;;;;;;;;;;;;5110221;27;20507;-81
2023/10/27 12:16:46;;;;;;;27.42;13.00;;;;;;;;;;5129080;27;19919;-77
2023/10/27 12:19:16;;;;;;;;;;;;;;;;;;5132378;27;20038;-86
2023/10/27 12:21:42;;;;;;;24.73;11.55;;;;;;;;;;5135289;27;19957;-84
2023/10/27 12:24:08;;;;;;;27.35;12.68;;;;;;;;;;5115915;27;20043;-77
2023/10/27 12:26:34;;;;;;;24.95;11.93;;;;;;;;;;5109467;27;20046;-84
2023/10/27 12:29:02;;;;;;;;;;;;;;;;;;5102868;27;20047;-82
2023/10/27 12:31:28;;;;;;;25.92;12.52;;;;;;;;;;5115711;27;19919;-85
2023/10/27 12:33:54;;;;;;;25.27;12.77;;;;;;;;;;5096436;27;20043;-78
2023/10/27 12:36:20;;;;;;;28.60;12.60;;;;;;;;;;5150400;27;20434;-80
2023/10/27 12:38:47;;;;;;;;;;;;;;;;;;5133335;27;20142;-83
2023/10/27 12:41:13;;;;;;;24.77;12.20;;;;;;;;;;5131613;27;19926;-85
2023/10/27 12:43:40;;;;;;;24.10;11.98;;;;;;;;;;5133942;27;20308;-84
2023/10/27 12:46:06;;;;;;;27.20;12.50;;;;;;;;;;5118693;27;20034;-82
2023/10/27 12:48:32;;;;;;;24.42;9.10;;;;;;;;;;5117616;27;20043;-79
2023/10/27 12:50:59;;;;;;;27.42;12.30;;;;;;;;;;5133036;27;20046;-78
2023/10/27 12:53:25;;;;;;;28.65;12.13;;;;;;;;;;5124886;27;20507;-80
2023/10/27 12:55:51;;;;;;;;;;;;;;;;;;5132177;27;20065;-82
2023/10/27 12:58:17;;;;;;;25.05;11.70;;;;;;;;;;5117380;27;20359;-82
2023/10/27 13:00:44;;;;;;;25.70;11.00;;;;;;;;;;5118744;27;20046;-84
2023/10/27 13:03:10;;;;;;;27.17;12.23;;;;;;;;;;5136011;27;20042;-79
2023/10/27 13:05:39;;;;;;;26.80;12.27;;;;;;;;;;5130915;27;20042;-81
2023/10/27 13:08:10;;;;;;;27.23;12.18;;;;;;;;;;5107246;27;20070;-76
2023/10/27 13:10:36;;;;;;;27.58;12.98;;;;;;;;;;5116388;27;20119;-78
2023/10/27 13:13:02;;;;;;;25.25;11.55;;;;;;;;;;5132831;27;20118;-78
2023/10/27 13:15:29;;;;;;;22.25;11.20;;;;;;;;;;5116597;27;20062;-77
2023/10/27 13:17:55;;;;;;;21.38;11.20;;;;;;;;;;5117784;27;20043;-77
2023/10/27 13:20:21;;;;;;;22.30;10.00;;;;;;;;;;5118095;27;20057;-78
2023/10/27 13:22:47;;;;;;;21.77;10.35;;;;;;;;;;5099485;27;20031;-79
2023/10/27 13:25:14;;;;;;;16.67;8.10;;;;;;;;;;5112929;27;20460;-78
2023/10/27 13:27:42;;;;;;;23.75;10.55;;;;;;;;;;5101513;27;20050;-79
2023/10/27 13:30:08;;;;;;;22.25;10.10;;;;;;;;;;5118712;27;20039;-80
2023/10/27 13:32:34;;;;;;;19.63;9.68;;;;;;;;;;5135385;27;20475;-79
2023/10/27 13:35:00;;;;;;;;;;;;;;;;;;5133398;27;20146;-80
2023/10/27 13:37:31;;;;;;;20.02;9.68;;;;;;;;;;5135808;27;20395;-78
2023/10/27 13:39:57;;;;;;;16.55;8.05;;;;;;;;;;5134660;27;20053;-80
2023/10/27 13:42:23;;;;;;;;;;;;;;;;;;5135856;27;20082;-78
2023/10/27 13:44:50;;;;;;;18.42;8.90;;;;;;;;;;5132145;27;19974;-79
2023/10/27 13:47:16;;;;;;;18.70;8.50;;;;;;;;;;5109269;27;20407;-79
2023/10/27 13:49:42;;;;;;;18.58;9.18;;;;;;;;;;5118231;27;20047;-79
2023/10/27 13:52:08;;;;;;;19.33;8.80;;;;;;;;;;5127165;27;20047;-85
2023/10/27 13:54:34;;;;;;;;;;;;;;;;;;5118647;27;20102;-79
2023/10/27 13:57:04;;;;;;;18.77;8.60;;;;;;;;;;5134244;27;19995;-79
2023/10/27 13:59:30;;;;;;;20.75;9.20;;;;;;;;;;5129514;27;20080;-81
2023/10/27 14:01:56;;;;;;;19.73;8.38;;;;;;;;;;5117183;27;20042;-79
2023/10/27 14:04:23;;;;;;;17.67;8.65;;;;;;;;;;5114993;27;20046;-80
2023/10/27 14:06:49;;;;;;;17.50;8.32;;;;;;;;;;5133561;27;20047;-86
2023/10/27 14:09:15;;;;;;;;;;;;;;;;;;5137565;27;20050;-81
2023/10/27 14:11:47;;;;;;;15.55;8.05;;;;;;;;;;5130403;27;19918;-79
2023/10/27 14:14:15;;;;;;;15.52;7.35;;;;;;;;;;5118515;27;20047;-79
2023/10/27 14:16:45;;;;;;;19.25;8.32;;;;;;;;;;5131372;27;20402;-80
2023/10/27 14:19:11;;;;;;;14.30;7.80;;;;;;;;;;5134013;27;20068;-79
2023/10/27 14:21:41;;;;;;;17.05;7.28;;;;;;;;;;5100943;27;20063;-79
2023/10/27 14:24:09;;;;;;;17.73;8.32;;;;;;;;;;5131881;27;20066;-79
2023/10/27 14:26:35;;;;;;;17.60;9.15;;;;;;;;;;5118216;27;20512;-79
2023/10/27 14:29:02;;;;;;;;;;;;;;;;;;5122258;27;20042;-79
2023/10/27 14:31:35;;;;;;;16.63;8.18;;;;;;;;;;5101984;27;20289;-79
2023/10/27 14:34:02;;;;;;;16.42;8.23;;;;;;;;;;5114188;27;20046;-79
2023/10/27 14:36:28;;;;;;;17.85;9.05;;;;;;;;;;5138771;27;20129;-80
2023/10/27 14:38:54;;;;;;;;;;;;;;;;;;5119950;27;20043;-78
2023/10/27 14:41:24;;;;;;;18.08;8.93;;;;;;;;;;5137420;27;19927;-79